sim
Sign-in with your pilot id or email,
or register
Callsign
Passwort

Schedule Details

Flight Number: DLH2241 (2)
Departure: Nantes Atlantique Airport (LFRS) at 07:45
Arrival: Munich Airport (EDDM) at 09:35
Route: Lufthansa Passenger Schedule. Enter filed route here before submitting Pirep.

Weather Information
Getting current METAR information for LFRS 191430Z AUTO 04006KT 360V080 9999 FEW029/// BKN080/// ///CB 23/17 Q1010 TEMPO VRB15G25KT 3000 TSRA BKN012 BKN020CB
Getting current METAR information for EDDM 191420Z 04003KT 290V070 CAVOK 22/12 Q1018 NOSIG

Schedule Frequency

Route Map